sensor_id;sensor_type;location;lat;lon;timestamp;P1;durP1;ratioP1;P2;durP2;ratioP2
50483;SDS011;36409;52.168;20.878;2023-07-29T00:00:31;10.43;;;5.10;;
50483;SDS011;36409;52.168;20.878;2023-07-29T00:03:20;8.20;;;4.40;;
50483;SDS011;36409;52.168;20.878;2023-07-29T00:05:48;8.03;;;5.00;;
50483;SDS011;36409;52.168;20.878;2023-07-29T00:08:17;7.40;;;5.40;;
50483;SDS011;36409;52.168;20.878;2023-07-29T00:10:46;10.57;;;5.00;;
50483;SDS011;36409;52.168;20.878;2023-07-29T00:13:15;7.53;;;4.70;;
50483;SDS011;36409;52.168;20.878;2023-07-29T00:15:44;7.63;;;4.73;;
50483;SDS011;36409;52.168;20.878;2023-07-29T00:18:12;6.33;;;5.03;;
50483;SDS011;36409;52.168;20.878;2023-07-29T00:20:41;5.70;;;4.67;;
50483;SDS011;36409;52.168;20.878;2023-07-29T00:23:10;5.80;;;4.60;;
50483;SDS011;36409;52.168;20.878;2023-07-29T00:25:39;11.40;;;5.13;;
50483;SDS011;36409;52.168;20.878;2023-07-29T00:28:07;7.17;;;5.23;;
50483;SDS011;36409;52.168;20.878;2023-07-29T00:30:36;8.40;;;4.67;;
50483;SDS011;36409;52.168;20.878;2023-07-29T00:33:05;9.77;;;5.43;;
50483;SDS011;36409;52.168;20.878;2023-07-29T00:35:35;6.70;;;4.73;;
50483;SDS011;36409;52.168;20.878;2023-07-29T00:38:03;10.33;;;5.80;;
50483;SDS011;36409;52.168;20.878;2023-07-29T00:40:34;10.63;;;5.23;;
50483;SDS011;36409;52.168;20.878;2023-07-29T00:43:04;10.97;;;5.90;;
50483;SDS011;36409;52.168;20.878;2023-07-29T00:45:36;11.95;;;5.25;;
50483;SDS011;36409;52.168;20.878;2023-07-29T00:48:07;12.30;;;5.77;;
50483;SDS011;36409;52.168;20.878;2023-07-29T00:50:36;11.00;;;5.47;;
50483;SDS011;36409;52.168;20.878;2023-07-29T00:53:05;6.60;;;4.83;;
50483;SDS011;36409;52.168;20.878;2023-07-29T00:55:34;12.53;;;5.10;;
50483;SDS011;36409;52.168;20.878;2023-07-29T00:58:03;10.43;;;5.50;;
50483;SDS011;36409;52.168;20.878;2023-07-29T01:00:33;6.83;;;4.87;;
50483;SDS011;36409;52.168;20.878;2023-07-29T01:03:04;8.07;;;5.60;;
50483;SDS011;36409;52.168;20.878;2023-07-29T01:05:35;9.50;;;6.00;;
50483;SDS011;36409;52.168;20.878;2023-07-29T01:08:20;8.27;;;6.17;;
50483;SDS011;36409;52.168;20.878;2023-07-29T01:10:58;10.80;;;6.07;;
50483;SDS011;36409;52.168;20.878;2023-07-29T01:13:37;12.23;;;6.37;;
50483;SDS011;36409;52.168;20.878;2023-07-29T01:16:13;8.53;;;5.87;;
50483;SDS011;36409;52.168;20.878;2023-07-29T01:18:47;8.93;;;6.43;;
50483;SDS011;36409;52.168;20.878;2023-07-29T01:21:19;8.75;;;6.40;;
50483;SDS011;36409;52.168;20.878;2023-07-29T01:23:58;9.00;;;6.27;;
50483;SDS011;36409;52.168;20.878;2023-07-29T01:26:28;11.17;;;6.63;;
50483;SDS011;36409;52.168;20.878;2023-07-29T01:28:57;10.43;;;7.77;;
50483;SDS011;36409;52.168;20.878;2023-07-29T01:31:28;13.67;;;8.70;;
50483;SDS011;36409;52.168;20.878;2023-07-29T01:34:05;11.47;;;8.27;;
50483;SDS011;36409;52.168;20.878;2023-07-29T01:36:38;14.53;;;8.33;;
50483;SDS011;36409;52.168;20.878;2023-07-29T01:39:14;17.50;;;9.90;;
50483;SDS011;36409;52.168;20.878;2023-07-29T01:41:45;17.57;;;11.20;;
50483;SDS011;36409;52.168;20.878;2023-07-29T01:44:14;16.55;;;10.45;;
50483;SDS011;36409;52.168;20.878;2023-07-29T01:46:44;21.20;;;10.40;;
50483;SDS011;36409;52.168;20.878;2023-07-29T01:49:13;18.17;;;10.73;;
50483;SDS011;36409;52.168;20.878;2023-07-29T01:51:42;15.20;;;9.70;;
50483;SDS011;36409;52.168;20.878;2023-07-29T01:54:11;19.10;;;9.97;;
50483;SDS011;36409;52.168;20.878;2023-07-29T01:56:40;17.53;;;10.97;;
50483;SDS011;36409;52.168;20.878;2023-07-29T01:59:09;27.20;;;10.57;;
50483;SDS011;36409;52.168;20.878;2023-07-29T02:01:38;16.50;;;9.40;;
50483;SDS011;36409;52.168;20.878;2023-07-29T02:04:07;20.63;;;10.00;;
50483;SDS011;36409;52.168;20.878;2023-07-29T02:06:36;18.87;;;10.47;;
50483;SDS011;36409;52.168;20.878;2023-07-29T02:09:06;28.17;;;10.10;;
50483;SDS011;36409;52.168;20.878;2023-07-29T02:11:35;30.23;;;10.50;;
50483;SDS011;36409;52.168;20.878;2023-07-29T02:14:03;19.13;;;9.27;;
50483;SDS011;36409;52.168;20.878;2023-07-29T02:16:32;22.97;;;8.90;;
50483;SDS011;36409;52.168;20.878;2023-07-29T02:19:02;26.97;;;9.50;;
50483;SDS011;36409;52.168;20.878;2023-07-29T02:21:31;28.03;;;9.37;;
50483;SDS011;36409;52.168;20.878;2023-07-29T02:24:00;20.37;;;9.10;;
50483;SDS011;36409;52.168;20.878;2023-07-29T02:26:29;41.53;;;9.03;;
50483;SDS011;36409;52.168;20.878;2023-07-29T02:28:57;28.90;;;9.70;;
50483;SDS011;36409;52.168;20.878;2023-07-29T02:31:26;20.27;;;8.37;;
50483;SDS011;36409;52.168;20.878;2023-07-29T02:33:56;33.50;;;9.10;;
50483;SDS011;36409;52.168;20.878;2023-07-29T02:36:25;29.17;;;9.23;;
50483;SDS011;36409;52.168;20.878;2023-07-29T02:38:55;39.35;;;9.10;;
50483;SDS011;36409;52.168;20.878;2023-07-29T02:41:24;22.87;;;9.37;;
50483;SDS011;36409;52.168;20.878;2023-07-29T02:43:54;30.53;;;9.67;;
50483;SDS011;36409;52.168;20.878;2023-07-29T02:46:23;38.80;;;8.93;;
50483;SDS011;36409;52.168;20.878;2023-07-29T02:48:52;19.23;;;9.83;;
50483;SDS011;36409;52.168;20.878;2023-07-29T02:51:20;33.90;;;9.00;;
50483;SDS011;36409;52.168;20.878;2023-07-29T02:53:51;31.23;;;7.90;;
50483;SDS011;36409;52.168;20.878;2023-07-29T02:56:20;26.27;;;8.20;;
50483;SDS011;36409;52.168;20.878;2023-07-29T02:58:50;37.67;;;8.43;;
50483;SDS011;36409;52.168;20.878;2023-07-29T03:01:19;27.37;;;8.57;;
50483;SDS011;36409;52.168;20.878;2023-07-29T03:03:49;25.40;;;9.03;;
50483;SDS011;36409;52.168;20.878;2023-07-29T03:06:18;27.73;;;8.23;;
50483;SDS011;36409;52.168;20.878;2023-07-29T03:08:47;42.40;;;9.07;;
50483;SDS011;36409;52.168;20.878;2023-07-29T03:11:16;43.23;;;9.37;;
50483;SDS011;36409;52.168;20.878;2023-07-29T03:13:45;36.73;;;9.47;;
50483;SDS011;36409;52.168;20.878;2023-07-29T03:16:14;41.87;;;9.10;;
50483;SDS011;36409;52.168;20.878;2023-07-29T03:18:49;15.67;;;8.93;;
50483;SDS011;36409;52.168;20.878;2023-07-29T03:21:18;18.90;;;9.53;;
50483;SDS011;36409;52.168;20.878;2023-07-29T03:23:47;41.47;;;8.80;;
50483;SDS011;36409;52.168;20.878;2023-07-29T03:26:16;31.30;;;8.10;;
50483;SDS011;36409;52.168;20.878;2023-07-29T03:28:45;45.57;;;7.60;;
50483;SDS011;36409;52.168;20.878;2023-07-29T03:31:13;40.27;;;8.30;;
50483;SDS011;36409;52.168;20.878;2023-07-29T03:33:42;29.57;;;7.57;;
50483;SDS011;36409;52.168;20.878;2023-07-29T03:36:11;57.40;;;8.23;;
50483;SDS011;36409;52.168;20.878;2023-07-29T03:38:41;54.97;;;8.27;;
50483;SDS011;36409;52.168;20.878;2023-07-29T03:41:12;15.80;;;7.37;;
50483;SDS011;36409;52.168;20.878;2023-07-29T03:43:40;47.43;;;8.60;;
50483;SDS011;36409;52.168;20.878;2023-07-29T03:46:09;32.50;;;8.27;;
50483;SDS011;36409;52.168;20.878;2023-07-29T03:48:40;37.87;;;7.27;;
50483;SDS011;36409;52.168;20.878;2023-07-29T03:51:09;69.90;;;8.60;;
50483;SDS011;36409;52.168;20.878;2023-07-29T03:53:37;87.03;;;8.87;;
50483;SDS011;36409;52.168;20.878;2023-07-29T03:56:06;78.37;;;8.50;;
50483;SDS011;36409;52.168;20.878;2023-07-29T03:58:35;60.63;;;8.90;;
50483;SDS011;36409;52.168;20.878;2023-07-29T04:01:04;67.07;;;9.83;;
50483;SDS011;36409;52.168;20.878;2023-07-29T04:03:33;56.50;;;10.03;;
50483;SDS011;36409;52.168;20.878;2023-07-29T04:06:03;17.77;;;10.67;;
50483;SDS011;36409;52.168;20.878;2023-07-29T04:08:32;69.57;;;10.80;;
50483;SDS011;36409;52.168;20.878;2023-07-29T04:11:01;21.07;;;10.67;;
50483;SDS011;36409;52.168;20.878;2023-07-29T04:13:30;31.80;;;11.43;;
50483;SDS011;36409;52.168;20.878;2023-07-29T04:15:59;50.67;;;11.50;;
50483;SDS011;36409;52.168;20.878;2023-07-29T04:18:29;68.53;;;11.97;;
50483;SDS011;36409;52.168;20.878;2023-07-29T04:20:58;39.33;;;11.27;;
50483;SDS011;36409;52.168;20.878;2023-07-29T04:23:27;56.63;;;11.00;;
50483;SDS011;36409;52.168;20.878;2023-07-29T04:25:58;35.10;;;10.50;;
50483;SDS011;36409;52.168;20.878;2023-07-29T04:28:27;34.83;;;10.33;;
50483;SDS011;36409;52.168;20.878;2023-07-29T04:30:56;27.17;;;9.90;;
50483;SDS011;36409;52.168;20.878;2023-07-29T04:33:26;23.00;;;9.47;;
50483;SDS011;36409;52.168;20.878;2023-07-29T04:35:57;21.87;;;10.33;;
50483;SDS011;36409;52.168;20.878;2023-07-29T04:38:29;15.53;;;9.90;;
50483;SDS011;36409;52.168;20.878;2023-07-29T04:41:00;22.67;;;10.73;;
50483;SDS011;36409;52.168;20.878;2023-07-29T04:43:30;13.53;;;10.53;;
50483;SDS011;36409;52.168;20.878;2023-07-29T04:45:59;17.70;;;9.27;;
50483;SDS011;36409;52.168;20.878;2023-07-29T04:48:29;12.53;;;9.70;;
50483;SDS011;36409;52.168;20.878;2023-07-29T04:50:58;14.00;;;9.70;;
50483;SDS011;36409;52.168;20.878;2023-07-29T04:53:27;13.43;;;10.07;;
50483;SDS011;36409;52.168;20.878;2023-07-29T04:55:57;11.53;;;10.03;;
50483;SDS011;36409;52.168;20.878;2023-07-29T04:58:25;22.85;;;10.80;;
50483;SDS011;36409;52.168;20.878;2023-07-29T05:00:58;17.90;;;10.27;;
50483;SDS011;36409;52.168;20.878;2023-07-29T05:03:27;24.27;;;8.70;;
50483;SDS011;36409;52.168;20.878;2023-07-29T05:05:58;11.33;;;9.73;;
50483;SDS011;36409;52.168;20.878;2023-07-29T05:08:30;10.40;;;9.20;;
50483;SDS011;36409;52.168;20.878;2023-07-29T05:10:59;10.63;;;8.97;;
50483;SDS011;36409;52.168;20.878;2023-07-29T05:13:28;12.33;;;10.00;;
50483;SDS011;36409;52.168;20.878;2023-07-29T05:15:57;14.90;;;9.33;;
50483;SDS011;36409;52.168;20.878;2023-07-29T05:18:26;11.57;;;8.50;;
50483;SDS011;36409;52.168;20.878;2023-07-29T05:20:57;9.97;;;8.57;;
50483;SDS011;36409;52.168;20.878;2023-07-29T05:23:26;12.43;;;9.17;;
50483;SDS011;36409;52.168;20.878;2023-07-29T05:25:55;14.47;;;9.97;;
50483;SDS011;36409;52.168;20.878;2023-07-29T05:28:24;10.90;;;9.17;;
50483;SDS011;36409;52.168;20.878;2023-07-29T05:30:53;15.37;;;8.93;;
50483;SDS011;36409;52.168;20.878;2023-07-29T05:33:22;14.23;;;9.93;;
50483;SDS011;36409;52.168;20.878;2023-07-29T05:35:51;11.35;;;9.90;;
50483;SDS011;36409;52.168;20.878;2023-07-29T05:38:20;12.13;;;9.63;;
50483;SDS011;36409;52.168;20.878;2023-07-29T05:40:49;10.63;;;9.53;;
50483;SDS011;36409;52.168;20.878;2023-07-29T05:43:18;11.33;;;9.77;;
50483;SDS011;36409;52.168;20.878;2023-07-29T05:45:47;11.30;;;10.00;;
50483;SDS011;36409;52.168;20.878;2023-07-29T05:48:16;10.67;;;9.43;;
50483;SDS011;36409;52.168;20.878;2023-07-29T05:50:45;12.57;;;10.33;;
50483;SDS011;36409;52.168;20.878;2023-07-29T05:53:14;11.93;;;9.83;;
50483;SDS011;36409;52.168;20.878;2023-07-29T05:55:43;10.13;;;9.03;;
50483;SDS011;36409;52.168;20.878;2023-07-29T05:58:12;11.87;;;9.37;;
50483;SDS011;36409;52.168;20.878;2023-07-29T06:00:41;11.87;;;9.13;;
50483;SDS011;36409;52.168;20.878;2023-07-29T06:03:10;11.97;;;9.70;;
50483;SDS011;36409;52.168;20.878;2023-07-29T06:05:39;11.87;;;9.07;;
50483;SDS011;36409;52.168;20.878;2023-07-29T06:08:09;11.37;;;9.90;;
50483;SDS011;36409;52.168;20.878;2023-07-29T06:10:39;11.73;;;10.13;;
50483;SDS011;36409;52.168;20.878;2023-07-29T06:13:08;10.87;;;9.30;;
50483;SDS011;36409;52.168;20.878;2023-07-29T06:15:37;11.03;;;9.67;;
50483;SDS011;36409;52.168;20.878;2023-07-29T06:18:06;9.77;;;8.80;;
50483;SDS011;36409;52.168;20.878;2023-07-29T06:20:35;10.50;;;8.60;;
50483;SDS011;36409;52.168;20.878;2023-07-29T06:23:04;11.00;;;9.37;;
50483;SDS011;36409;52.168;20.878;2023-07-29T06:25:33;10.53;;;8.27;;
50483;SDS011;36409;52.168;20.878;2023-07-29T06:28:01;11.80;;;8.00;;
50483;SDS011;36409;52.168;20.878;2023-07-29T06:30:30;9.30;;;8.00;;
50483;SDS011;36409;52.168;20.878;2023-07-29T06:32:59;8.07;;;6.83;;
50483;SDS011;36409;52.168;20.878;2023-07-29T06:35:30;10.17;;;7.97;;
50483;SDS011;36409;52.168;20.878;2023-07-29T06:37:59;9.87;;;8.20;;
50483;SDS011;36409;52.168;20.878;2023-07-29T06:40:28;8.47;;;7.43;;
50483;SDS011;36409;52.168;20.878;2023-07-29T06:42:57;8.67;;;7.37;;
50483;SDS011;36409;52.168;20.878;2023-07-29T06:45:26;8.77;;;7.40;;
50483;SDS011;36409;52.168;20.878;2023-07-29T06:47:57;8.23;;;6.87;;
50483;SDS011;36409;52.168;20.878;2023-07-29T06:50:26;10.30;;;7.40;;
50483;SDS011;36409;52.168;20.878;2023-07-29T06:52:56;9.23;;;7.13;;
50483;SDS011;36409;52.168;20.878;2023-07-29T06:55:25;9.13;;;6.93;;
50483;SDS011;36409;52.168;20.878;2023-07-29T06:57:57;7.50;;;6.40;;
50483;SDS011;36409;52.168;20.878;2023-07-29T07:00:25;9.00;;;7.23;;
50483;SDS011;36409;52.168;20.878;2023-07-29T07:02:55;9.40;;;7.40;;
50483;SDS011;36409;52.168;20.878;2023-07-29T07:05:24;10.97;;;7.00;;
50483;SDS011;36409;52.168;20.878;2023-07-29T07:07:53;8.00;;;7.20;;
50483;SDS011;36409;52.168;20.878;2023-07-29T07:10:22;7.40;;;6.33;;
50483;SDS011;36409;52.168;20.878;2023-07-29T07:12:51;8.57;;;6.07;;
50483;SDS011;36409;52.168;20.878;2023-07-29T07:15:19;7.67;;;6.87;;
50483;SDS011;36409;52.168;20.878;2023-07-29T07:17:48;60.93;;;18.20;;
50483;SDS011;36409;52.168;20.878;2023-07-29T07:20:18;22.30;;;9.77;;
50483;SDS011;36409;52.168;20.878;2023-07-29T07:22:47;20.87;;;9.40;;
50483;SDS011;36409;52.168;20.878;2023-07-29T07:25:16;20.43;;;8.93;;
50483;SDS011;36409;52.168;20.878;2023-07-29T07:27:45;9.40;;;6.33;;
50483;SDS011;36409;52.168;20.878;2023-07-29T07:30:13;8.03;;;6.13;;
50483;SDS011;36409;52.168;20.878;2023-07-29T07:32:42;7.37;;;5.67;;
50483;SDS011;36409;52.168;20.878;2023-07-29T07:35:12;7.87;;;5.53;;
50483;SDS011;36409;52.168;20.878;2023-07-29T07:37:41;16.23;;;7.17;;
50483;SDS011;36409;52.168;20.878;2023-07-29T07:40:10;6.67;;;5.80;;
50483;SDS011;36409;52.168;20.878;2023-07-29T07:42:39;5.83;;;4.87;;
50483;SDS011;36409;52.168;20.878;2023-07-29T07:45:08;7.50;;;5.23;;
50483;SDS011;36409;52.168;20.878;2023-07-29T07:47:37;7.47;;;5.73;;
50483;SDS011;36409;52.168;20.878;2023-07-29T07:50:06;7.67;;;4.90;;
50483;SDS011;36409;52.168;20.878;2023-07-29T07:52:36;7.63;;;4.50;;
50483;SDS011;36409;52.168;20.878;2023-07-29T07:55:05;5.97;;;4.30;;
50483;SDS011;36409;52.168;20.878;2023-07-29T07:57:35;5.10;;;3.87;;
50483;SDS011;36409;52.168;20.878;2023-07-29T08:00:05;5.13;;;4.03;;
50483;SDS011;36409;52.168;20.878;2023-07-29T08:02:43;5.63;;;3.83;;
50483;SDS011;36409;52.168;20.878;2023-07-29T08:05:12;8.37;;;4.90;;
50483;SDS011;36409;52.168;20.878;2023-07-29T08:07:41;5.97;;;4.60;;
50483;SDS011;36409;52.168;20.878;2023-07-29T08:10:10;5.60;;;3.90;;
50483;SDS011;36409;52.168;20.878;2023-07-29T08:12:39;5.90;;;4.50;;
50483;SDS011;36409;52.168;20.878;2023-07-29T08:15:08;6.03;;;4.00;;
50483;SDS011;36409;52.168;20.878;2023-07-29T08:17:37;5.53;;;3.77;;
50483;SDS011;36409;52.168;20.878;2023-07-29T08:20:07;5.30;;;3.70;;
50483;SDS011;36409;52.168;20.878;2023-07-29T08:22:36;5.83;;;3.93;;
50483;SDS011;36409;52.168;20.878;2023-07-29T08:25:06;6.27;;;3.80;;
50483;SDS011;36409;52.168;20.878;2023-07-29T08:27:36;4.73;;;3.70;;
50483;SDS011;36409;52.168;20.878;2023-07-29T08:30:07;8.57;;;3.40;;
50483;SDS011;36409;52.168;20.878;2023-07-29T08:32:37;5.97;;;3.17;;
50483;SDS011;36409;52.168;20.878;2023-07-29T08:35:06;8.37;;;3.40;;
50483;SDS011;36409;52.168;20.878;2023-07-29T08:37:35;6.67;;;3.20;;
50483;SDS011;36409;52.168;20.878;2023-07-29T08:40:05;4.63;;;2.77;;
50483;SDS011;36409;52.168;20.878;2023-07-29T08:42:35;3.50;;;2.33;;
50483;SDS011;36409;52.168;20.878;2023-07-29T08:45:09;5.23;;;2.30;;
50483;SDS011;36409;52.168;20.878;2023-07-29T08:47:39;3.97;;;2.20;;
50483;SDS011;36409;52.168;20.878;2023-07-29T08:50:08;4.20;;;2.70;;
50483;SDS011;36409;52.168;20.878;2023-07-29T08:55:10;3.40;;;2.10;;
50483;SDS011;36409;52.168;20.878;2023-07-29T08:57:39;5.03;;;2.53;;
50483;SDS011;36409;52.168;20.878;2023-07-29T09:00:09;3.67;;;2.10;;
50483;SDS011;36409;52.168;20.878;2023-07-29T09:02:39;3.13;;;1.97;;
50483;SDS011;36409;52.168;20.878;2023-07-29T09:05:08;4.13;;;1.97;;
50483;SDS011;36409;52.168;20.878;2023-07-29T09:07:38;3.60;;;2.00;;
50483;SDS011;36409;52.168;20.878;2023-07-29T09:10:09;6.40;;;2.30;;
50483;SDS011;36409;52.168;20.878;2023-07-29T09:12:40;2.70;;;1.60;;
50483;SDS011;36409;52.168;20.878;2023-07-29T09:15:09;5.10;;;1.70;;
50483;SDS011;36409;52.168;20.878;2023-07-29T09:17:38;2.97;;;1.70;;
50483;SDS011;36409;52.168;20.878;2023-07-29T09:20:10;3.30;;;1.73;;
50483;SDS011;36409;52.168;20.878;2023-07-29T09:22:40;3.33;;;2.10;;
50483;SDS011;36409;52.168;20.878;2023-07-29T09:25:11;2.60;;;1.70;;
50483;SDS011;36409;52.168;20.878;2023-07-29T09:27:43;4.50;;;2.10;;
50483;SDS011;36409;52.168;20.878;2023-07-29T09:30:16;3.33;;;2.03;;
50483;SDS011;36409;52.168;20.878;2023-07-29T09:32:45;3.72;;;1.90;;
50483;SDS011;36409;52.168;20.878;2023-07-29T09:35:13;3.03;;;1.87;;
50483;SDS011;36409;52.168;20.878;2023-07-29T09:37:43;3.50;;;2.30;;
50483;SDS011;36409;52.168;20.878;2023-07-29T09:40:14;3.73;;;1.87;;
50483;SDS011;36409;52.168;20.878;2023-07-29T09:42:48;4.40;;;2.00;;
50483;SDS011;36409;52.168;20.878;2023-07-29T09:45:21;3.10;;;2.03;;
50483;SDS011;36409;52.168;20.878;2023-07-29T09:47:52;5.00;;;2.10;;
50483;SDS011;36409;52.168;20.878;2023-07-29T09:50:23;4.70;;;1.80;;
50483;SDS011;36409;52.168;20.878;2023-07-29T09:52:54;2.30;;;1.67;;
50483;SDS011;36409;52.168;20.878;2023-07-29T09:55:25;2.90;;;1.70;;
50483;SDS011;36409;52.168;20.878;2023-07-29T09:57:55;2.50;;;1.50;;
50483;SDS011;36409;52.168;20.878;2023-07-29T10:00:27;4.90;;;1.90;;
50483;SDS011;36409;52.168;20.878;2023-07-29T10:02:57;3.33;;;1.90;;
50483;SDS011;36409;52.168;20.878;2023-07-29T10:05:27;3.70;;;2.33;;
50483;SDS011;36409;52.168;20.878;2023-07-29T10:07:57;2.93;;;1.90;;
50483;SDS011;36409;52.168;20.878;2023-07-29T10:10:27;3.60;;;2.03;;
50483;SDS011;36409;52.168;20.878;2023-07-29T10:12:57;3.03;;;1.80;;
50483;SDS011;36409;52.168;20.878;2023-07-29T10:15:27;2.47;;;1.67;;
50483;SDS011;36409;52.168;20.878;2023-07-29T10:17:57;2.87;;;1.80;;
50483;SDS011;36409;52.168;20.878;2023-07-29T10:20:27;2.27;;;1.50;;
50483;SDS011;36409;52.168;20.878;2023-07-29T10:22:58;3.90;;;1.70;;
50483;SDS011;36409;52.168;20.878;2023-07-29T10:25:32;2.67;;;1.73;;
50483;SDS011;36409;52.168;20.878;2023-07-29T10:28:08;5.33;;;1.70;;
50483;SDS011;36409;52.168;20.878;2023-07-29T10:30:43;2.73;;;1.87;;
50483;SDS011;36409;52.168;20.878;2023-07-29T10:33:12;3.57;;;1.50;;
50483;SDS011;36409;52.168;20.878;2023-07-29T10:35:41;5.10;;;2.03;;
50483;SDS011;36409;52.168;20.878;2023-07-29T10:38:11;4.70;;;1.63;;
50483;SDS011;36409;52.168;20.878;2023-07-29T10:40:44;3.03;;;1.53;;
50483;SDS011;36409;52.168;20.878;2023-07-29T10:43:18;4.40;;;1.95;;
50483;SDS011;36409;52.168;20.878;2023-07-29T10:45:52;3.45;;;1.90;;
50483;SDS011;36409;52.168;20.878;2023-07-29T10:48:41;2.77;;;1.60;;
50483;SDS011;36409;52.168;20.878;2023-07-29T10:51:25;2.60;;;1.60;;
50483;SDS011;36409;52.168;20.878;2023-07-29T10:53:58;4.13;;;1.90;;
50483;SDS011;36409;52.168;20.878;2023-07-29T10:56:29;4.43;;;1.90;;
50483;SDS011;36409;52.168;20.878;2023-07-29T11:02:00;2.93;;;1.90;;
50483;SDS011;36409;52.168;20.878;2023-07-29T11:04:30;2.67;;;1.70;;
50483;SDS011;36409;52.168;20.878;2023-07-29T11:09:54;6.70;;;1.57;;
50483;SDS011;36409;52.168;20.878;2023-07-29T11:12:35;2.23;;;1.40;;
50483;SDS011;36409;52.168;20.878;2023-07-29T11:15:11;2.70;;;1.67;;
50483;SDS011;36409;52.168;20.878;2023-07-29T11:17:42;3.97;;;1.70;;
50483;SDS011;36409;52.168;20.878;2023-07-29T11:20:12;2.67;;;1.60;;
50483;SDS011;36409;52.168;20.878;2023-07-29T11:22:42;4.83;;;1.60;;
50483;SDS011;36409;52.168;20.878;2023-07-29T11:25:12;3.13;;;1.70;;
50483;SDS011;36409;52.168;20.878;2023-07-29T11:27:42;4.67;;;1.77;;
50483;SDS011;36409;52.168;20.878;2023-07-29T11:30:13;2.60;;;1.60;;
50483;SDS011;36409;52.168;20.878;2023-07-29T11:32:43;3.00;;;1.80;;
50483;SDS011;36409;52.168;20.878;2023-07-29T11:35:14;2.77;;;1.80;;
50483;SDS011;36409;52.168;20.878;2023-07-29T11:37:44;2.37;;;1.60;;
50483;SDS011;36409;52.168;20.878;2023-07-29T11:40:14;2.63;;;1.70;;
50483;SDS011;36409;52.168;20.878;2023-07-29T11:42:45;4.00;;;1.87;;
50483;SDS011;36409;52.168;20.878;2023-07-29T11:45:15;3.50;;;1.70;;
50483;SDS011;36409;52.168;20.878;2023-07-29T11:47:45;4.07;;;1.70;;
50483;SDS011;36409;52.168;20.878;2023-07-29T11:50:15;4.07;;;1.50;;
50483;SDS011;36409;52.168;20.878;2023-07-29T11:52:46;2.50;;;1.63;;
50483;SDS011;36409;52.168;20.878;2023-07-29T11:55:16;2.70;;;1.67;;
50483;SDS011;36409;52.168;20.878;2023-07-29T11:57:46;3.17;;;1.53;;
50483;SDS011;36409;52.168;20.878;2023-07-29T12:00:19;6.40;;;1.77;;
50483;SDS011;36409;52.168;20.878;2023-07-29T12:02:49;2.40;;;1.47;;
50483;SDS011;36409;52.168;20.878;2023-07-29T12:05:18;2.93;;;1.57;;
50483;SDS011;36409;52.168;20.878;2023-07-29T12:07:49;3.47;;;1.80;;
50483;SDS011;36409;52.168;20.878;2023-07-29T12:10:19;2.60;;;1.57;;
50483;SDS011;36409;52.168;20.878;2023-07-29T12:12:49;5.47;;;2.00;;
50483;SDS011;36409;52.168;20.878;2023-07-29T12:15:25;2.97;;;1.77;;
50483;SDS011;36409;52.168;20.878;2023-07-29T12:17:56;3.67;;;1.40;;
50483;SDS011;36409;52.168;20.878;2023-07-29T12:20:26;4.90;;;1.80;;
50483;SDS011;36409;52.168;20.878;2023-07-29T12:22:57;2.07;;;1.17;;
50483;SDS011;36409;52.168;20.878;2023-07-29T12:25:30;4.28;;;1.70;;
50483;SDS011;36409;52.168;20.878;2023-07-29T12:28:03;2.60;;;1.50;;
50483;SDS011;36409;52.168;20.878;2023-07-29T12:30:34;3.27;;;1.90;;
50483;SDS011;36409;52.168;20.878;2023-07-29T12:33:09;2.73;;;1.77;;
50483;SDS011;36409;52.168;20.878;2023-07-29T12:35:38;3.07;;;1.53;;
50483;SDS011;36409;52.168;20.878;2023-07-29T12:38:07;2.40;;;1.43;;
50483;SDS011;36409;52.168;20.878;2023-07-29T12:40:38;5.37;;;1.63;;
50483;SDS011;36409;52.168;20.878;2023-07-29T12:43:07;1.98;;;1.42;;
50483;SDS011;36409;52.168;20.878;2023-07-29T12:45:36;3.73;;;2.30;;
50483;SDS011;36409;52.168;20.878;2023-07-29T12:48:07;4.00;;;1.90;;
50483;SDS011;36409;52.168;20.878;2023-07-29T12:50:36;2.63;;;1.53;;
50483;SDS011;36409;52.168;20.878;2023-07-29T12:53:06;2.93;;;1.80;;
50483;SDS011;36409;52.168;20.878;2023-07-29T12:55:37;2.13;;;1.50;;
50483;SDS011;36409;52.168;20.878;2023-07-29T12:58:06;2.93;;;1.60;;
50483;SDS011;36409;52.168;20.878;2023-07-29T13:00:35;2.40;;;1.60;;
50483;SDS011;36409;52.168;20.878;2023-07-29T13:03:05;3.20;;;1.90;;
50483;SDS011;36409;52.168;20.878;2023-07-29T13:05:34;4.87;;;1.70;;
50483;SDS011;36409;52.168;20.878;2023-07-29T13:08:03;3.97;;;1.60;;
50483;SDS011;36409;52.168;20.878;2023-07-29T13:10:32;2.20;;;1.53;;
50483;SDS011;36409;52.168;20.878;2023-07-29T13:13:01;3.17;;;1.80;;
50483;SDS011;36409;52.168;20.878;2023-07-29T13:15:30;2.23;;;1.47;;
50483;SDS011;36409;52.168;20.878;2023-07-29T13:17:59;5.00;;;1.60;;
50483;SDS011;36409;52.168;20.878;2023-07-29T13:20:28;3.93;;;1.70;;
50483;SDS011;36409;52.168;20.878;2023-07-29T13:22:57;2.60;;;1.60;;
50483;SDS011;36409;52.168;20.878;2023-07-29T13:25:26;4.00;;;1.70;;
50483;SDS011;36409;52.168;20.878;2023-07-29T13:27:56;3.17;;;1.80;;
50483;SDS011;36409;52.168;20.878;2023-07-29T13:30:25;4.03;;;1.40;;
50483;SDS011;36409;52.168;20.878;2023-07-29T13:32:54;3.27;;;1.50;;
50483;SDS011;36409;52.168;20.878;2023-07-29T13:35:24;2.90;;;1.77;;
50483;SDS011;36409;52.168;20.878;2023-07-29T13:37:53;2.70;;;1.47;;
50483;SDS011;36409;52.168;20.878;2023-07-29T13:40:21;3.40;;;1.80;;
50483;SDS011;36409;52.168;20.878;2023-07-29T13:42:50;5.40;;;1.40;;
50483;SDS011;36409;52.168;20.878;2023-07-29T13:45:19;2.93;;;1.80;;
50483;SDS011;36409;52.168;20.878;2023-07-29T13:47:48;2.60;;;1.70;;
50483;SDS011;36409;52.168;20.878;2023-07-29T13:50:17;3.20;;;1.97;;
50483;SDS011;36409;52.168;20.878;2023-07-29T13:52:46;13.03;;;3.57;;
50483;SDS011;36409;52.168;20.878;2023-07-29T13:55:16;3.83;;;1.80;;
50483;SDS011;36409;52.168;20.878;2023-07-29T13:57:44;2.50;;;1.63;;
50483;SDS011;36409;52.168;20.878;2023-07-29T14:00:14;2.50;;;1.53;;
50483;SDS011;36409;52.168;20.878;2023-07-29T14:02:42;2.60;;;1.60;;
50483;SDS011;36409;52.168;20.878;2023-07-29T14:05:12;3.10;;;1.70;;
50483;SDS011;36409;52.168;20.878;2023-07-29T14:07:41;2.13;;;1.40;;
50483;SDS011;36409;52.168;20.878;2023-07-29T14:10:10;3.07;;;1.77;;
50483;SDS011;36409;52.168;20.878;2023-07-29T14:12:39;2.40;;;1.47;;
50483;SDS011;36409;52.168;20.878;2023-07-29T14:15:08;1.95;;;1.45;;
50483;SDS011;36409;52.168;20.878;2023-07-29T14:17:37;2.37;;;1.50;;
50483;SDS011;36409;52.168;20.878;2023-07-29T14:20:07;2.00;;;1.40;;
50483;SDS011;36409;52.168;20.878;2023-07-29T14:22:37;3.30;;;2.00;;
50483;SDS011;36409;52.168;20.878;2023-07-29T14:25:07;3.40;;;1.80;;
50483;SDS011;36409;52.168;20.878;2023-07-29T14:27:36;2.20;;;1.63;;
50483;SDS011;36409;52.168;20.878;2023-07-29T14:30:06;2.97;;;1.60;;
50483;SDS011;36409;52.168;20.878;2023-07-29T14:32:35;2.80;;;1.50;;
50483;SDS011;36409;52.168;20.878;2023-07-29T14:35:05;2.53;;;1.50;;
50483;SDS011;36409;52.168;20.878;2023-07-29T14:37:35;7.67;;;1.80;;
50483;SDS011;36409;52.168;20.878;2023-07-29T14:40:07;2.95;;;1.60;;
50483;SDS011;36409;52.168;20.878;2023-07-29T14:42:36;4.77;;;1.80;;
50483;SDS011;36409;52.168;20.878;2023-07-29T14:45:06;2.20;;;1.40;;
50483;SDS011;36409;52.168;20.878;2023-07-29T14:47:35;3.23;;;1.80;;
50483;SDS011;36409;52.168;20.878;2023-07-29T14:50:05;2.67;;;1.67;;
50483;SDS011;36409;52.168;20.878;2023-07-29T14:52:34;4.07;;;1.53;;